Terminal Aerodrome Forecast
Issued by NWS Newport/Morehead City, NC

Home | Current Version | Previous Version | Text Only | Print | Product List | Glossary On
Versions: 1 2 3 4 5 6 7 8 9 10 11 12 13 14 15 16 17 18
000
FTUS42 KMHX 111400 AAB
TAFEWN
TAF AMD
KEWN 111420Z 1114/1212 00000KT P6SM BKN015
     FM111800 VRB05KT P6SM VCTS SCT020 BKN040CB
     FM120000 16005KT P6SM BKN045=

USA.gov is the U.S. government's official web portal to all federal, state and local government web resources and services.